sensor_id;sensor_type;location;lat;lon;timestamp;P1;durP1;ratioP1;P2;durP2;ratioP2
67564;SDS011;54393;53.556;49.216;2023-05-10T00:01:44;1.23;;;1.12;;
67564;SDS011;54393;53.556;49.216;2023-05-10T00:04:10;1.00;;;1.00;;
67564;SDS011;54393;53.556;49.216;2023-05-10T00:06:37;1.30;;;1.30;;
67564;SDS011;54393;53.556;49.216;2023-05-10T00:09:03;1.12;;;1.10;;
67564;SDS011;54393;53.556;49.216;2023-05-10T00:11:30;1.33;;;1.23;;
67564;SDS011;54393;53.556;49.216;2023-05-10T00:13:57;1.20;;;1.10;;
67564;SDS011;54393;53.556;49.216;2023-05-10T00:16:23;1.30;;;1.20;;
67564;SDS011;54393;53.556;49.216;2023-05-10T00:18:49;1.00;;;1.00;;
67564;SDS011;54393;53.556;49.216;2023-05-10T00:21:16;1.40;;;1.30;;
67564;SDS011;54393;53.556;49.216;2023-05-10T00:23:42;2.22;;;1.33;;
67564;SDS011;54393;53.556;49.216;2023-05-10T00:26:09;1.27;;;1.17;;
67564;SDS011;54393;53.556;49.216;2023-05-10T00:28:36;1.90;;;1.15;;
67564;SDS011;54393;53.556;49.216;2023-05-10T00:31:02;1.20;;;1.10;;
67564;SDS011;54393;53.556;49.216;2023-05-10T00:33:29;1.58;;;1.23;;
67564;SDS011;54393;53.556;49.216;2023-05-10T00:35:55;1.15;;;1.05;;
67564;SDS011;54393;53.556;49.216;2023-05-10T00:38:22;1.10;;;1.00;;
67564;SDS011;54393;53.556;49.216;2023-05-10T00:40:48;1.17;;;1.17;;
67564;SDS011;54393;53.556;49.216;2023-05-10T00:43:15;1.25;;;1.15;;
67564;SDS011;54393;53.556;49.216;2023-05-10T00:45:41;1.20;;;1.20;;
67564;SDS011;54393;53.556;49.216;2023-05-10T00:48:08;1.37;;;1.10;;
67564;SDS011;54393;53.556;49.216;2023-05-10T00:50:34;1.20;;;1.20;;
67564;SDS011;54393;53.556;49.216;2023-05-10T00:53:01;1.45;;;1.35;;
67564;SDS011;54393;53.556;49.216;2023-05-10T00:55:28;1.45;;;1.33;;
67564;SDS011;54393;53.556;49.216;2023-05-10T00:57:55;1.08;;;1.08;;
67564;SDS011;54393;53.556;49.216;2023-05-10T01:00:21;1.40;;;1.30;;
67564;SDS011;54393;53.556;49.216;2023-05-10T01:02:48;1.12;;;1.12;;
67564;SDS011;54393;53.556;49.216;2023-05-10T01:05:15;1.42;;;1.40;;
67564;SDS011;54393;53.556;49.216;2023-05-10T01:07:41;1.12;;;1.10;;
67564;SDS011;54393;53.556;49.216;2023-05-10T01:10:08;1.20;;;1.20;;
67564;SDS011;54393;53.556;49.216;2023-05-10T01:12:36;1.00;;;1.00;;
67564;SDS011;54393;53.556;49.216;2023-05-10T01:15:05;1.37;;;1.30;;
67564;SDS011;54393;53.556;49.216;2023-05-10T01:17:32;1.10;;;1.10;;
67564;SDS011;54393;53.556;49.216;2023-05-10T01:19:59;0.90;;;0.90;;
67564;SDS011;54393;53.556;49.216;2023-05-10T01:22:42;1.25;;;1.23;;
67564;SDS011;54393;53.556;49.216;2023-05-10T01:31:30;1.60;;;1.12;;
67564;SDS011;54393;53.556;49.216;2023-05-10T01:34:20;1.50;;;1.35;;
67564;SDS011;54393;53.556;49.216;2023-05-10T01:36:51;1.05;;;1.05;;
67564;SDS011;54393;53.556;49.216;2023-05-10T01:42:10;1.17;;;1.17;;
67564;SDS011;54393;53.556;49.216;2023-05-10T01:45:06;1.40;;;1.30;;
67564;SDS011;54393;53.556;49.216;2023-05-10T01:50:32;1.00;;;1.00;;
67564;SDS011;54393;53.556;49.216;2023-05-10T01:53:01;1.25;;;1.15;;
67564;SDS011;54393;53.556;49.216;2023-05-10T01:55:32;1.30;;;1.20;;
67564;SDS011;54393;53.556;49.216;2023-05-10T01:58:05;2.28;;;1.30;;
67564;SDS011;54393;53.556;49.216;2023-05-10T02:00:35;1.15;;;1.05;;
67564;SDS011;54393;53.556;49.216;2023-05-10T02:03:08;1.27;;;1.15;;
67564;SDS011;54393;53.556;49.216;2023-05-10T02:05:35;1.15;;;1.12;;
67564;SDS011;54393;53.556;49.216;2023-05-10T02:08:03;1.35;;;1.25;;
67564;SDS011;54393;53.556;49.216;2023-05-10T02:10:32;1.00;;;1.00;;
67564;SDS011;54393;53.556;49.216;2023-05-10T02:13:02;1.37;;;1.27;;
67564;SDS011;54393;53.556;49.216;2023-05-10T02:15:28;1.20;;;1.20;;
67564;SDS011;54393;53.556;49.216;2023-05-10T02:17:56;1.75;;;1.20;;
67564;SDS011;54393;53.556;49.216;2023-05-10T02:20:23;1.02;;;1.00;;
67564;SDS011;54393;53.556;49.216;2023-05-10T02:22:52;1.02;;;1.02;;
67564;SDS011;54393;53.556;49.216;2023-05-10T02:25:19;1.05;;;0.98;;
67564;SDS011;54393;53.556;49.216;2023-05-10T02:27:47;2.03;;;1.30;;
67564;SDS011;54393;53.556;49.216;2023-05-10T02:30:15;1.20;;;1.10;;
67564;SDS011;54393;53.556;49.216;2023-05-10T02:32:42;1.20;;;1.10;;
67564;SDS011;54393;53.556;49.216;2023-05-10T02:35:09;1.15;;;1.05;;
67564;SDS011;54393;53.556;49.216;2023-05-10T02:37:36;1.52;;;1.42;;
67564;SDS011;54393;53.556;49.216;2023-05-10T02:40:04;1.40;;;1.23;;
67564;SDS011;54393;53.556;49.216;2023-05-10T02:42:32;0.98;;;0.95;;
67564;SDS011;54393;53.556;49.216;2023-05-10T02:45:01;1.35;;;1.25;;
67564;SDS011;54393;53.556;49.216;2023-05-10T02:47:30;1.40;;;0.90;;
67564;SDS011;54393;53.556;49.216;2023-05-10T02:49:57;1.30;;;1.20;;
67564;SDS011;54393;53.556;49.216;2023-05-10T02:52:29;1.70;;;1.27;;
67564;SDS011;54393;53.556;49.216;2023-05-10T02:55:02;1.12;;;1.05;;
67564;SDS011;54393;53.556;49.216;2023-05-10T02:57:31;1.30;;;1.20;;
67564;SDS011;54393;53.556;49.216;2023-05-10T02:59:59;1.40;;;1.30;;
67564;SDS011;54393;53.556;49.216;2023-05-10T03:02:26;1.60;;;1.25;;
67564;SDS011;54393;53.556;49.216;2023-05-10T03:04:53;1.30;;;1.20;;
67564;SDS011;54393;53.556;49.216;2023-05-10T03:07:19;1.27;;;1.10;;
67564;SDS011;54393;53.556;49.216;2023-05-10T03:09:47;1.48;;;1.37;;
67564;SDS011;54393;53.556;49.216;2023-05-10T03:20:35;2.55;;;1.40;;
67564;SDS011;54393;53.556;49.216;2023-05-10T03:28:26;2.70;;;1.20;;
67564;SDS011;54393;53.556;49.216;2023-05-10T03:30:53;1.20;;;1.10;;
67564;SDS011;54393;53.556;49.216;2023-05-10T03:33:20;1.30;;;1.20;;
67564;SDS011;54393;53.556;49.216;2023-05-10T03:35:47;2.05;;;1.20;;
67564;SDS011;54393;53.556;49.216;2023-05-10T03:38:14;1.60;;;1.37;;
67564;SDS011;54393;53.556;49.216;2023-05-10T03:40:40;1.42;;;1.20;;
67564;SDS011;54393;53.556;49.216;2023-05-10T03:43:07;1.30;;;1.20;;
67564;SDS011;54393;53.556;49.216;2023-05-10T03:45:33;1.15;;;1.15;;
67564;SDS011;54393;53.556;49.216;2023-05-10T03:48:00;1.52;;;1.42;;
67564;SDS011;54393;53.556;49.216;2023-05-10T03:50:26;1.20;;;1.20;;
67564;SDS011;54393;53.556;49.216;2023-05-10T03:52:53;1.45;;;1.35;;
67564;SDS011;54393;53.556;49.216;2023-05-10T03:55:19;1.10;;;1.10;;
67564;SDS011;54393;53.556;49.216;2023-05-10T03:57:45;2.80;;;1.55;;
67564;SDS011;54393;53.556;49.216;2023-05-10T04:00:14;1.40;;;1.30;;
67564;SDS011;54393;53.556;49.216;2023-05-10T04:02:41;2.30;;;1.45;;
67564;SDS011;54393;53.556;49.216;2023-05-10T04:05:08;1.40;;;1.30;;
67564;SDS011;54393;53.556;49.216;2023-05-10T04:07:35;1.30;;;1.20;;
67564;SDS011;54393;53.556;49.216;2023-05-10T04:10:01;1.00;;;1.00;;
67564;SDS011;54393;53.556;49.216;2023-05-10T04:12:28;1.42;;;1.40;;
67564;SDS011;54393;53.556;49.216;2023-05-10T04:14:54;1.87;;;1.30;;
67564;SDS011;54393;53.556;49.216;2023-05-10T04:17:21;1.67;;;1.30;;
67564;SDS011;54393;53.556;49.216;2023-05-10T04:19:47;1.45;;;1.35;;
67564;SDS011;54393;53.556;49.216;2023-05-10T04:22:14;1.33;;;1.23;;
67564;SDS011;54393;53.556;49.216;2023-05-10T04:24:41;1.62;;;1.52;;
67564;SDS011;54393;53.556;49.216;2023-05-10T04:27:07;1.40;;;1.30;;
67564;SDS011;54393;53.556;49.216;2023-05-10T04:29:34;1.40;;;1.30;;
67564;SDS011;54393;53.556;49.216;2023-05-10T04:32:00;2.08;;;1.60;;
67564;SDS011;54393;53.556;49.216;2023-05-10T04:34:27;1.50;;;1.40;;
67564;SDS011;54393;53.556;49.216;2023-05-10T04:36:54;1.20;;;1.10;;
67564;SDS011;54393;53.556;49.216;2023-05-10T04:39:20;1.67;;;1.50;;
67564;SDS011;54393;53.556;49.216;2023-05-10T04:41:46;1.60;;;1.50;;
67564;SDS011;54393;53.556;49.216;2023-05-10T04:44:13;1.98;;;1.52;;
67564;SDS011;54393;53.556;49.216;2023-05-10T04:46:39;1.60;;;1.50;;
67564;SDS011;54393;53.556;49.216;2023-05-10T04:49:06;2.97;;;1.50;;
67564;SDS011;54393;53.556;49.216;2023-05-10T04:51:32;1.45;;;1.35;;
67564;SDS011;54393;53.556;49.216;2023-05-10T04:53:59;1.70;;;1.60;;
67564;SDS011;54393;53.556;49.216;2023-05-10T04:56:25;1.80;;;1.50;;
67564;SDS011;54393;53.556;49.216;2023-05-10T04:58:52;3.42;;;1.83;;
67564;SDS011;54393;53.556;49.216;2023-05-10T05:01:18;1.50;;;1.40;;
67564;SDS011;54393;53.556;49.216;2023-05-10T05:03:45;1.35;;;1.17;;
67564;SDS011;54393;53.556;49.216;2023-05-10T05:06:11;0.90;;;0.90;;
67564;SDS011;54393;53.556;49.216;2023-05-10T05:08:38;1.10;;;1.10;;
67564;SDS011;54393;53.556;49.216;2023-05-10T05:11:04;1.85;;;1.62;;
67564;SDS011;54393;53.556;49.216;2023-05-10T05:13:31;1.77;;;1.67;;
67564;SDS011;54393;53.556;49.216;2023-05-10T05:15:59;1.40;;;1.30;;
67564;SDS011;54393;53.556;49.216;2023-05-10T05:18:27;1.55;;;1.40;;
67564;SDS011;54393;53.556;49.216;2023-05-10T05:20:54;2.72;;;1.33;;
67564;SDS011;54393;53.556;49.216;2023-05-10T05:23:21;1.92;;;1.27;;
67564;SDS011;54393;53.556;49.216;2023-05-10T05:25:52;1.15;;;1.15;;
67564;SDS011;54393;53.556;49.216;2023-05-10T05:28:19;1.62;;;1.40;;
67564;SDS011;54393;53.556;49.216;2023-05-10T05:30:46;1.42;;;1.33;;
67564;SDS011;54393;53.556;49.216;2023-05-10T05:33:13;1.77;;;1.58;;
67564;SDS011;54393;53.556;49.216;2023-05-10T05:35:41;1.70;;;1.60;;
67564;SDS011;54393;53.556;49.216;2023-05-10T05:38:12;1.85;;;1.27;;
67564;SDS011;54393;53.556;49.216;2023-05-10T05:40:39;2.15;;;1.55;;
67564;SDS011;54393;53.556;49.216;2023-05-10T05:43:06;1.42;;;1.27;;
67564;SDS011;54393;53.556;49.216;2023-05-10T05:45:32;1.87;;;1.67;;
67564;SDS011;54393;53.556;49.216;2023-05-10T05:47:59;1.90;;;1.25;;
67564;SDS011;54393;53.556;49.216;2023-05-10T05:50:25;1.80;;;1.70;;
67564;SDS011;54393;53.556;49.216;2023-05-10T05:52:52;1.95;;;1.30;;
67564;SDS011;54393;53.556;49.216;2023-05-10T05:55:18;1.60;;;1.50;;
67564;SDS011;54393;53.556;49.216;2023-05-10T05:57:46;3.03;;;1.52;;
67564;SDS011;54393;53.556;49.216;2023-05-10T06:00:13;1.73;;;1.48;;
67564;SDS011;54393;53.556;49.216;2023-05-10T06:02:41;1.80;;;1.42;;
67564;SDS011;54393;53.556;49.216;2023-05-10T06:05:08;1.52;;;1.40;;
67564;SDS011;54393;53.556;49.216;2023-05-10T06:07:34;3.10;;;1.70;;
67564;SDS011;54393;53.556;49.216;2023-05-10T06:10:01;1.80;;;1.50;;
67564;SDS011;54393;53.556;49.216;2023-05-10T06:12:28;1.60;;;1.50;;
67564;SDS011;54393;53.556;49.216;2023-05-10T06:14:54;3.65;;;1.45;;
67564;SDS011;54393;53.556;49.216;2023-05-10T06:17:22;3.95;;;1.67;;
67564;SDS011;54393;53.556;49.216;2023-05-10T06:19:49;4.28;;;1.92;;
67564;SDS011;54393;53.556;49.216;2023-05-10T06:22:15;5.22;;;1.85;;
67564;SDS011;54393;53.556;49.216;2023-05-10T06:24:42;2.65;;;1.73;;
67564;SDS011;54393;53.556;49.216;2023-05-10T06:27:09;5.55;;;1.50;;
67564;SDS011;54393;53.556;49.216;2023-05-10T06:29:37;3.62;;;1.67;;
67564;SDS011;54393;53.556;49.216;2023-05-10T06:32:07;2.65;;;1.50;;
67564;SDS011;54393;53.556;49.216;2023-05-10T06:34:33;5.55;;;1.92;;
67564;SDS011;54393;53.556;49.216;2023-05-10T06:37:00;3.92;;;1.42;;
67564;SDS011;54393;53.556;49.216;2023-05-10T06:39:28;1.95;;;1.42;;
67564;SDS011;54393;53.556;49.216;2023-05-10T06:41:55;2.45;;;1.30;;
67564;SDS011;54393;53.556;49.216;2023-05-10T06:44:21;3.75;;;1.90;;
67564;SDS011;54393;53.556;49.216;2023-05-10T06:46:47;3.37;;;1.85;;
67564;SDS011;54393;53.556;49.216;2023-05-10T06:49:15;3.90;;;1.73;;
67564;SDS011;54393;53.556;49.216;2023-05-10T06:51:41;4.20;;;1.45;;
67564;SDS011;54393;53.556;49.216;2023-05-10T06:54:07;3.37;;;1.50;;
67564;SDS011;54393;53.556;49.216;2023-05-10T06:56:34;5.78;;;1.90;;
67564;SDS011;54393;53.556;49.216;2023-05-10T06:59:00;3.33;;;1.58;;
67564;SDS011;54393;53.556;49.216;2023-05-10T07:01:28;2.47;;;1.30;;
67564;SDS011;54393;53.556;49.216;2023-05-10T07:03:54;1.87;;;1.33;;
67564;SDS011;54393;53.556;49.216;2023-05-10T07:06:21;5.12;;;1.35;;
67564;SDS011;54393;53.556;49.216;2023-05-10T07:08:47;7.65;;;1.58;;
67564;SDS011;54393;53.556;49.216;2023-05-10T07:11:14;3.78;;;1.55;;
67564;SDS011;54393;53.556;49.216;2023-05-10T07:13:40;2.92;;;1.65;;
67564;SDS011;54393;53.556;49.216;2023-05-10T07:16:09;4.15;;;1.40;;
67564;SDS011;54393;53.556;49.216;2023-05-10T07:18:36;2.10;;;1.42;;
67564;SDS011;54393;53.556;49.216;2023-05-10T07:21:02;3.92;;;1.50;;
67564;SDS011;54393;53.556;49.216;2023-05-10T07:23:29;3.45;;;1.23;;
67564;SDS011;54393;53.556;49.216;2023-05-10T07:25:56;1.37;;;1.17;;
67564;SDS011;54393;53.556;49.216;2023-05-10T07:28:22;2.60;;;1.45;;
67564;SDS011;54393;53.556;49.216;2023-05-10T07:30:51;3.85;;;1.30;;
67564;SDS011;54393;53.556;49.216;2023-05-10T07:33:18;1.48;;;1.33;;
67564;SDS011;54393;53.556;49.216;2023-05-10T07:35:44;4.32;;;1.10;;
67564;SDS011;54393;53.556;49.216;2023-05-10T07:38:11;1.98;;;1.20;;
67564;SDS011;54393;53.556;49.216;2023-05-10T07:40:38;2.55;;;1.02;;
67564;SDS011;54393;53.556;49.216;2023-05-10T07:43:04;3.50;;;1.55;;
67564;SDS011;54393;53.556;49.216;2023-05-10T07:45:31;6.10;;;1.58;;
67564;SDS011;54393;53.556;49.216;2023-05-10T07:47:58;2.55;;;1.10;;
67564;SDS011;54393;53.556;49.216;2023-05-10T07:50:25;1.73;;;1.10;;
67564;SDS011;54393;53.556;49.216;2023-05-10T07:52:52;1.50;;;1.05;;
67564;SDS011;54393;53.556;49.216;2023-05-10T07:55:18;1.75;;;1.15;;
67564;SDS011;54393;53.556;49.216;2023-05-10T07:57:46;1.40;;;1.10;;
67564;SDS011;54393;53.556;49.216;2023-05-10T08:00:13;2.70;;;1.05;;
67564;SDS011;54393;53.556;49.216;2023-05-10T08:02:43;1.40;;;1.30;;
67564;SDS011;54393;53.556;49.216;2023-05-10T08:05:10;3.47;;;1.37;;
67564;SDS011;54393;53.556;49.216;2023-05-10T08:07:36;1.08;;;1.00;;
67564;SDS011;54393;53.556;49.216;2023-05-10T08:10:03;1.85;;;1.00;;
67564;SDS011;54393;53.556;49.216;2023-05-10T08:12:30;2.15;;;1.12;;
67564;SDS011;54393;53.556;49.216;2023-05-10T08:14:56;1.80;;;1.08;;
67564;SDS011;54393;53.556;49.216;2023-05-10T08:17:23;1.85;;;1.55;;
67564;SDS011;54393;53.556;49.216;2023-05-10T08:19:49;1.42;;;0.90;;
67564;SDS011;54393;53.556;49.216;2023-05-10T08:22:16;1.25;;;1.15;;
67564;SDS011;54393;53.556;49.216;2023-05-10T08:24:42;1.95;;;1.20;;
67564;SDS011;54393;53.556;49.216;2023-05-10T08:27:09;1.05;;;0.98;;
67564;SDS011;54393;53.556;49.216;2023-05-10T08:29:35;1.23;;;0.88;;
67564;SDS011;54393;53.556;49.216;2023-05-10T08:32:02;1.52;;;0.95;;
67564;SDS011;54393;53.556;49.216;2023-05-10T08:34:29;2.03;;;1.20;;
67564;SDS011;54393;53.556;49.216;2023-05-10T08:36:56;5.25;;;1.15;;
67564;SDS011;54393;53.556;49.216;2023-05-10T08:39:22;2.17;;;1.27;;
67564;SDS011;54393;53.556;49.216;2023-05-10T08:41:49;1.35;;;1.23;;
67564;SDS011;54393;53.556;49.216;2023-05-10T08:44:16;1.67;;;0.98;;
67564;SDS011;54393;53.556;49.216;2023-05-10T08:46:44;1.10;;;1.10;;
67564;SDS011;54393;53.556;49.216;2023-05-10T08:49:16;1.10;;;1.08;;
67564;SDS011;54393;53.556;49.216;2023-05-10T08:51:44;1.73;;;1.10;;
67564;SDS011;54393;53.556;49.216;2023-05-10T08:54:15;3.03;;;1.30;;
67564;SDS011;54393;53.556;49.216;2023-05-10T08:56:41;2.42;;;1.12;;
67564;SDS011;54393;53.556;49.216;2023-05-10T08:59:08;3.60;;;1.20;;
67564;SDS011;54393;53.556;49.216;2023-05-10T09:01:35;2.40;;;1.52;;
67564;SDS011;54393;53.556;49.216;2023-05-10T09:04:03;1.23;;;1.10;;
67564;SDS011;54393;53.556;49.216;2023-05-10T09:06:29;1.30;;;1.10;;
67564;SDS011;54393;53.556;49.216;2023-05-10T09:08:57;1.30;;;1.17;;
67564;SDS011;54393;53.556;49.216;2023-05-10T09:11:24;2.03;;;1.30;;
67564;SDS011;54393;53.556;49.216;2023-05-10T09:13:54;1.40;;;1.30;;
67564;SDS011;54393;53.556;49.216;2023-05-10T09:16:21;1.10;;;1.02;;
67564;SDS011;54393;53.556;49.216;2023-05-10T09:18:48;2.37;;;1.30;;
67564;SDS011;54393;53.556;49.216;2023-05-10T09:21:15;1.55;;;1.45;;
67564;SDS011;54393;53.556;49.216;2023-05-10T09:23:44;2.60;;;1.20;;
67564;SDS011;54393;53.556;49.216;2023-05-10T09:26:12;1.20;;;1.10;;
67564;SDS011;54393;53.556;49.216;2023-05-10T09:28:52;1.40;;;1.25;;
67564;SDS011;54393;53.556;49.216;2023-05-10T09:31:22;1.40;;;1.20;;
67564;SDS011;54393;53.556;49.216;2023-05-10T09:33:50;1.83;;;1.20;;
67564;SDS011;54393;53.556;49.216;2023-05-10T09:36:17;1.10;;;1.10;;
67564;SDS011;54393;53.556;49.216;2023-05-10T09:38:48;1.48;;;1.37;;
67564;SDS011;54393;53.556;49.216;2023-05-10T09:41:17;2.20;;;1.35;;
67564;SDS011;54393;53.556;49.216;2023-05-10T09:43:45;1.15;;;1.15;;
67564;SDS011;54393;53.556;49.216;2023-05-10T09:46:12;1.52;;;1.42;;
67564;SDS011;54393;53.556;49.216;2023-05-10T09:48:43;1.50;;;1.40;;
67564;SDS011;54393;53.556;49.216;2023-05-10T09:51:10;1.45;;;1.35;;
67564;SDS011;54393;53.556;49.216;2023-05-10T09:53:46;0.95;;;0.95;;
67564;SDS011;54393;53.556;49.216;2023-05-10T09:56:34;2.12;;;1.15;;
67564;SDS011;54393;53.556;49.216;2023-05-10T09:59:02;2.60;;;1.23;;
67564;SDS011;54393;53.556;49.216;2023-05-10T10:01:29;1.77;;;1.30;;
67564;SDS011;54393;53.556;49.216;2023-05-10T10:03:56;1.40;;;1.30;;
67564;SDS011;54393;53.556;49.216;2023-05-10T10:06:23;1.37;;;1.23;;
67564;SDS011;54393;53.556;49.216;2023-05-10T10:08:50;2.87;;;1.60;;
67564;SDS011;54393;53.556;49.216;2023-05-10T10:11:17;2.92;;;1.55;;
67564;SDS011;54393;53.556;49.216;2023-05-10T10:13:44;1.95;;;1.42;;
67564;SDS011;54393;53.556;49.216;2023-05-10T10:16:10;2.05;;;1.50;;
67564;SDS011;54393;53.556;49.216;2023-05-10T10:18:37;2.62;;;1.35;;
67564;SDS011;54393;53.556;49.216;2023-05-10T10:21:07;1.77;;;1.40;;
67564;SDS011;54393;53.556;49.216;2023-05-10T10:23:37;2.20;;;1.42;;
67564;SDS011;54393;53.556;49.216;2023-05-10T10:26:03;1.70;;;1.55;;
67564;SDS011;54393;53.556;49.216;2023-05-10T10:31:16;3.80;;;1.85;;
67564;SDS011;54393;53.556;49.216;2023-05-10T10:36:40;4.97;;;2.15;;
67564;SDS011;54393;53.556;49.216;2023-05-10T10:39:09;4.97;;;2.05;;
67564;SDS011;54393;53.556;49.216;2023-05-10T10:41:53;3.12;;;2.10;;
67564;SDS011;54393;53.556;49.216;2023-05-10T10:44:22;5.15;;;2.35;;
67564;SDS011;54393;53.556;49.216;2023-05-10T10:47:06;8.00;;;3.05;;
67564;SDS011;54393;53.556;49.216;2023-05-10T10:52:13;10.90;;;3.03;;
67564;SDS011;54393;53.556;49.216;2023-05-10T10:54:41;11.98;;;3.33;;
67564;SDS011;54393;53.556;49.216;2023-05-10T10:57:12;7.15;;;2.70;;
67564;SDS011;54393;53.556;49.216;2023-05-10T10:59:43;8.50;;;4.20;;
67564;SDS011;54393;53.556;49.216;2023-05-10T11:02:09;13.90;;;3.40;;
67564;SDS011;54393;53.556;49.216;2023-05-10T11:04:56;11.52;;;3.67;;
67564;SDS011;54393;53.556;49.216;2023-05-10T11:07:22;12.35;;;3.22;;
67564;SDS011;54393;53.556;49.216;2023-05-10T11:09:49;8.98;;;3.28;;
67564;SDS011;54393;53.556;49.216;2023-05-10T11:12:16;8.65;;;3.28;;
67564;SDS011;54393;53.556;49.216;2023-05-10T11:14:43;9.25;;;3.42;;
67564;SDS011;54393;53.556;49.216;2023-05-10T11:17:28;11.60;;;4.07;;
67564;SDS011;54393;53.556;49.216;2023-05-10T11:20:05;6.50;;;2.92;;
67564;SDS011;54393;53.556;49.216;2023-05-10T11:22:52;9.45;;;3.50;;
67564;SDS011;54393;53.556;49.216;2023-05-10T11:25:19;6.25;;;3.12;;
67564;SDS011;54393;53.556;49.216;2023-05-10T11:27:51;6.35;;;3.28;;
67564;SDS011;54393;53.556;49.216;2023-05-10T11:30:17;5.47;;;3.47;;
67564;SDS011;54393;53.556;49.216;2023-05-10T11:32:44;6.45;;;2.95;;
67564;SDS011;54393;53.556;49.216;2023-05-10T11:35:11;8.50;;;3.03;;
67564;SDS011;54393;53.556;49.216;2023-05-10T11:37:41;7.47;;;3.25;;
67564;SDS011;54393;53.556;49.216;2023-05-10T11:40:09;7.20;;;3.08;;
67564;SDS011;54393;53.556;49.216;2023-05-10T11:42:39;5.22;;;2.85;;
67564;SDS011;54393;53.556;49.216;2023-05-10T11:45:06;7.82;;;3.12;;
67564;SDS011;54393;53.556;49.216;2023-05-10T11:47:33;5.85;;;2.92;;
67564;SDS011;54393;53.556;49.216;2023-05-10T11:50:00;7.93;;;3.62;;
67564;SDS011;54393;53.556;49.216;2023-05-10T11:52:27;7.72;;;3.97;;
67564;SDS011;54393;53.556;49.216;2023-05-10T11:54:54;14.93;;;3.58;;
67564;SDS011;54393;53.556;49.216;2023-05-10T11:57:25;18.73;;;4.10;;
67564;SDS011;54393;53.556;49.216;2023-05-10T11:59:53;25.17;;;3.95;;
67564;SDS011;54393;53.556;49.216;2023-05-10T12:02:20;18.33;;;4.37;;
67564;SDS011;54393;53.556;49.216;2023-05-10T12:04:46;24.60;;;4.55;;
67564;SDS011;54393;53.556;49.216;2023-05-10T12:07:13;22.20;;;4.55;;
67564;SDS011;54393;53.556;49.216;2023-05-10T12:12:39;25.80;;;4.60;;
67564;SDS011;54393;53.556;49.216;2023-05-10T12:15:19;25.70;;;5.00;;
67564;SDS011;54393;53.556;49.216;2023-05-10T12:17:47;25.45;;;4.80;;
67564;SDS011;54393;53.556;49.216;2023-05-10T12:22:59;18.10;;;4.20;;
67564;SDS011;54393;53.556;49.216;2023-05-10T12:25:35;25.02;;;5.12;;
67564;SDS011;54393;53.556;49.216;2023-05-10T12:28:06;25.48;;;5.10;;
67564;SDS011;54393;53.556;49.216;2023-05-10T12:30:34;26.70;;;5.22;;
67564;SDS011;54393;53.556;49.216;2023-05-10T12:33:01;22.15;;;4.25;;
67564;SDS011;54393;53.556;49.216;2023-05-10T12:35:32;13.65;;;3.83;;
67564;SDS011;54393;53.556;49.216;2023-05-10T12:37:59;19.33;;;4.97;;
67564;SDS011;54393;53.556;49.216;2023-05-10T12:40:25;17.73;;;4.35;;
67564;SDS011;54393;53.556;49.216;2023-05-10T12:42:52;21.23;;;4.20;;
67564;SDS011;54393;53.556;49.216;2023-05-10T12:45:18;13.80;;;3.67;;
67564;SDS011;54393;53.556;49.216;2023-05-10T12:47:45;17.35;;;4.32;;
67564;SDS011;54393;53.556;49.216;2023-05-10T12:50:11;14.50;;;3.40;;
67564;SDS011;54393;53.556;49.216;2023-05-10T12:52:38;12.43;;;3.55;;
67564;SDS011;54393;53.556;49.216;2023-05-10T12:55:05;13.27;;;3.67;;
67564;SDS011;54393;53.556;49.216;2023-05-10T12:57:31;10.38;;;4.05;;
67564;SDS011;54393;53.556;49.216;2023-05-10T12:59:58;11.80;;;3.80;;
67564;SDS011;54393;53.556;49.216;2023-05-10T13:02:25;13.27;;;4.07;;
67564;SDS011;54393;53.556;49.216;2023-05-10T13:04:52;14.05;;;3.67;;
67564;SDS011;54393;53.556;49.216;2023-05-10T13:07:18;15.77;;;4.15;;
67564;SDS011;54393;53.556;49.216;2023-05-10T13:09:45;13.88;;;3.75;;
67564;SDS011;54393;53.556;49.216;2023-05-10T13:12:11;12.88;;;3.87;;
67564;SDS011;54393;53.556;49.216;2023-05-10T13:14:38;9.07;;;3.97;;
67564;SDS011;54393;53.556;49.216;2023-05-10T13:17:05;9.75;;;4.00;;
67564;SDS011;54393;53.556;49.216;2023-05-10T13:19:32;14.80;;;4.37;;
67564;SDS011;54393;53.556;49.216;2023-05-10T13:21:58;8.68;;;3.80;;
67564;SDS011;54393;53.556;49.216;2023-05-10T13:24:25;12.13;;;3.85;;
67564;SDS011;54393;53.556;49.216;2023-05-10T13:26:51;8.88;;;3.45;;
67564;SDS011;54393;53.556;49.216;2023-05-10T13:29:18;11.82;;;4.07;;
67564;SDS011;54393;53.556;49.216;2023-05-10T13:31:46;10.75;;;4.12;;
67564;SDS011;54393;53.556;49.216;2023-05-10T13:34:12;11.30;;;4.70;;
67564;SDS011;54393;53.556;49.216;2023-05-10T13:36:39;11.32;;;3.85;;
67564;SDS011;54393;53.556;49.216;2023-05-10T13:39:05;9.50;;;3.65;;
67564;SDS011;54393;53.556;49.216;2023-05-10T13:41:32;12.77;;;3.85;;
67564;SDS011;54393;53.556;49.216;2023-05-10T13:43:59;9.65;;;3.65;;
67564;SDS011;54393;53.556;49.216;2023-05-10T13:46:25;7.53;;;3.53;;
67564;SDS011;54393;53.556;49.216;2023-05-10T13:48:52;10.02;;;3.80;;
67564;SDS011;54393;53.556;49.216;2023-05-10T13:51:18;9.43;;;3.45;;
67564;SDS011;54393;53.556;49.216;2023-05-10T13:53:45;13.50;;;3.30;;
67564;SDS011;54393;53.556;49.216;2023-05-10T13:56:12;8.40;;;4.18;;
67564;SDS011;54393;53.556;49.216;2023-05-10T13:58:39;11.75;;;3.62;;
67564;SDS011;54393;53.556;49.216;2023-05-10T14:01:09;6.80;;;3.30;;
67564;SDS011;54393;53.556;49.216;2023-05-10T14:03:37;8.02;;;3.55;;
67564;SDS011;54393;53.556;49.216;2023-05-10T14:06:03;8.32;;;3.90;;
67564;SDS011;54393;53.556;49.216;2023-05-10T14:08:30;7.62;;;3.87;;
67564;SDS011;54393;53.556;49.216;2023-05-10T14:10:56;9.18;;;3.62;;
67564;SDS011;54393;53.556;49.216;2023-05-10T14:13:23;9.45;;;3.67;;
67564;SDS011;54393;53.556;49.216;2023-05-10T14:15:50;7.70;;;3.40;;
67564;SDS011;54393;53.556;49.216;2023-05-10T14:18:17;5.97;;;3.28;;
67564;SDS011;54393;53.556;49.216;2023-05-10T14:20:44;7.47;;;3.25;;
67564;SDS011;54393;53.556;49.216;2023-05-10T14:23:10;8.13;;;3.25;;
67564;SDS011;54393;53.556;49.216;2023-05-10T14:25:38;5.30;;;3.08;;
67564;SDS011;54393;53.556;49.216;2023-05-10T14:28:05;5.45;;;3.22;;
67564;SDS011;54393;53.556;49.216;2023-05-10T14:30:31;6.50;;;3.10;;
67564;SDS011;54393;53.556;49.216;2023-05-10T14:33:01;7.12;;;3.75;;
67564;SDS011;54393;53.556;49.216;2023-05-10T14:35:28;8.75;;;3.60;;
67564;SDS011;54393;53.556;49.216;2023-05-10T14:37:56;6.50;;;3.33;;
67564;SDS011;54393;53.556;49.216;2023-05-10T14:40:23;5.80;;;3.10;;
67564;SDS011;54393;53.556;49.216;2023-05-10T14:42:50;7.75;;;3.42;;
67564;SDS011;54393;53.556;49.216;2023-05-10T14:45:18;3.92;;;2.83;;
67564;SDS011;54393;53.556;49.216;2023-05-10T14:47:44;7.47;;;3.40;;
67564;SDS011;54393;53.556;49.216;2023-05-10T14:50:11;6.07;;;2.72;;
67564;SDS011;54393;53.556;49.216;2023-05-10T14:52:37;7.53;;;2.80;;
67564;SDS011;54393;53.556;49.216;2023-05-10T14:55:04;4.53;;;3.10;;
67564;SDS011;54393;53.556;49.216;2023-05-10T14:57:31;6.07;;;2.95;;
67564;SDS011;54393;53.556;49.216;2023-05-10T14:59:57;5.43;;;3.37;;
67564;SDS011;54393;53.556;49.216;2023-05-10T15:02:24;6.82;;;3.00;;
67564;SDS011;54393;53.556;49.216;2023-05-10T15:04:50;6.12;;;2.53;;
67564;SDS011;54393;53.556;49.216;2023-05-10T15:07:17;5.55;;;2.97;;
67564;SDS011;54393;53.556;49.216;2023-05-10T15:09:46;4.75;;;2.95;;
67564;SDS011;54393;53.556;49.216;2023-05-10T15:12:13;6.68;;;2.65;;
67564;SDS011;54393;53.556;49.216;2023-05-10T15:14:40;5.72;;;2.60;;
67564;SDS011;54393;53.556;49.216;2023-05-10T15:17:06;4.90;;;2.87;;